sensor_id;sensor_type;location;lat;lon;timestamp;temperature;humidity
23471;DHT22;11908;50.806;4.424;2023-08-20T00:00:26;20.70;99.90
23471;DHT22;11908;50.806;4.424;2023-08-20T00:02:59;20.70;99.90
23471;DHT22;11908;50.806;4.424;2023-08-20T00:05:32;20.70;99.90
23471;DHT22;11908;50.806;4.424;2023-08-20T00:07:58;20.70;99.90
23471;DHT22;11908;50.806;4.424;2023-08-20T00:10:23;20.70;99.90
23471;DHT22;11908;50.806;4.424;2023-08-20T00:12:49;20.60;99.90
23471;DHT22;11908;50.806;4.424;2023-08-20T00:15:15;20.60;99.90
23471;DHT22;11908;50.806;4.424;2023-08-20T00:17:41;20.50;99.90
23471;DHT22;11908;50.806;4.424;2023-08-20T00:20:10;20.50;99.90
23471;DHT22;11908;50.806;4.424;2023-08-20T00:22:39;20.40;99.90
23471;DHT22;11908;50.806;4.424;2023-08-20T00:25:05;20.40;99.90
23471;DHT22;11908;50.806;4.424;2023-08-20T00:27:32;20.30;99.90
23471;DHT22;11908;50.806;4.424;2023-08-20T00:29:58;20.20;99.90
23471;DHT22;11908;50.806;4.424;2023-08-20T00:32:23;20.20;99.90
23471;DHT22;11908;50.806;4.424;2023-08-20T00:34:49;20.20;99.90
23471;DHT22;11908;50.806;4.424;2023-08-20T00:37:15;20.20;99.90
23471;DHT22;11908;50.806;4.424;2023-08-20T00:39:41;20.20;99.90
23471;DHT22;11908;50.806;4.424;2023-08-20T00:42:06;20.00;99.90
23471;DHT22;11908;50.806;4.424;2023-08-20T00:44:33;20.00;99.90
23471;DHT22;11908;50.806;4.424;2023-08-20T00:47:01;20.00;99.90
23471;DHT22;11908;50.806;4.424;2023-08-20T00:49:29;20.00;99.90
23471;DHT22;11908;50.806;4.424;2023-08-20T00:51:55;20.00;99.90
23471;DHT22;11908;50.806;4.424;2023-08-20T00:54:21;20.00;99.90
23471;DHT22;11908;50.806;4.424;2023-08-20T00:56:49;20.10;99.90
23471;DHT22;11908;50.806;4.424;2023-08-20T00:59:16;20.10;99.90
23471;DHT22;11908;50.806;4.424;2023-08-20T01:01:42;20.10;99.90
23471;DHT22;11908;50.806;4.424;2023-08-20T01:04:08;20.00;99.90
23471;DHT22;11908;50.806;4.424;2023-08-20T01:06:55;20.00;99.90
23471;DHT22;11908;50.806;4.424;2023-08-20T01:12:14;20.00;99.90
23471;DHT22;11908;50.806;4.424;2023-08-20T01:14:41;19.90;99.90
23471;DHT22;11908;50.806;4.424;2023-08-20T01:17:07;19.90;99.90
23471;DHT22;11908;50.806;4.424;2023-08-20T01:19:33;19.90;99.90
23471;DHT22;11908;50.806;4.424;2023-08-20T01:30:15;20.00;99.90
23471;DHT22;11908;50.806;4.424;2023-08-20T01:32:41;20.10;99.90
23471;DHT22;11908;50.806;4.424;2023-08-20T01:35:17;20.10;99.90
23471;DHT22;11908;50.806;4.424;2023-08-20T01:37:44;20.10;99.90
23471;DHT22;11908;50.806;4.424;2023-08-20T01:40:10;20.20;99.90
23471;DHT22;11908;50.806;4.424;2023-08-20T01:42:39;20.20;99.90
23471;DHT22;11908;50.806;4.424;2023-08-20T01:45:06;20.20;99.90
23471;DHT22;11908;50.806;4.424;2023-08-20T01:47:33;20.30;99.90
23471;DHT22;11908;50.806;4.424;2023-08-20T01:49:59;20.30;99.90
23471;DHT22;11908;50.806;4.424;2023-08-20T01:52:25;20.10;99.90
23471;DHT22;11908;50.806;4.424;2023-08-20T01:54:51;20.20;99.90
23471;DHT22;11908;50.806;4.424;2023-08-20T01:57:16;20.20;99.90
23471;DHT22;11908;50.806;4.424;2023-08-20T01:59:42;20.20;99.90
23471;DHT22;11908;50.806;4.424;2023-08-20T02:02:08;20.30;99.90
23471;DHT22;11908;50.806;4.424;2023-08-20T02:04:34;20.20;99.90
23471;DHT22;11908;50.806;4.424;2023-08-20T02:07:00;20.20;99.90
23471;DHT22;11908;50.806;4.424;2023-08-20T02:09:25;20.20;99.90
23471;DHT22;11908;50.806;4.424;2023-08-20T02:11:51;20.20;99.90
23471;DHT22;11908;50.806;4.424;2023-08-20T02:14:17;20.20;99.90
23471;DHT22;11908;50.806;4.424;2023-08-20T02:16:43;20.20;99.90
23471;DHT22;11908;50.806;4.424;2023-08-20T02:19:09;20.20;99.90
23471;DHT22;11908;50.806;4.424;2023-08-20T02:21:35;20.10;99.90
23471;DHT22;11908;50.806;4.424;2023-08-20T02:24:01;20.10;99.90
23471;DHT22;11908;50.806;4.424;2023-08-20T02:26:27;20.00;99.90
23471;DHT22;11908;50.806;4.424;2023-08-20T02:28:53;20.00;99.90
23471;DHT22;11908;50.806;4.424;2023-08-20T02:31:18;19.90;99.90
23471;DHT22;11908;50.806;4.424;2023-08-20T02:33:44;19.80;99.90
23471;DHT22;11908;50.806;4.424;2023-08-20T02:36:10;19.80;99.90
23471;DHT22;11908;50.806;4.424;2023-08-20T02:38:36;19.70;99.90
23471;DHT22;11908;50.806;4.424;2023-08-20T02:41:01;19.60;99.90
23471;DHT22;11908;50.806;4.424;2023-08-20T02:43:30;19.60;99.90
23471;DHT22;11908;50.806;4.424;2023-08-20T02:45:55;19.50;99.90
23471;DHT22;11908;50.806;4.424;2023-08-20T02:48:22;19.40;99.90
23471;DHT22;11908;50.806;4.424;2023-08-20T02:50:53;19.40;99.90
23471;DHT22;11908;50.806;4.424;2023-08-20T02:53:19;19.30;99.90
23471;DHT22;11908;50.806;4.424;2023-08-20T02:55:44;19.30;99.90
23471;DHT22;11908;50.806;4.424;2023-08-20T02:58:10;19.20;99.90
23471;DHT22;11908;50.806;4.424;2023-08-20T03:00:36;19.20;99.90
23471;DHT22;11908;50.806;4.424;2023-08-20T03:03:02;19.20;99.90
23471;DHT22;11908;50.806;4.424;2023-08-20T03:05:31;19.10;99.90
23471;DHT22;11908;50.806;4.424;2023-08-20T03:07:57;19.10;99.90
23471;DHT22;11908;50.806;4.424;2023-08-20T03:10:24;19.00;99.90
23471;DHT22;11908;50.806;4.424;2023-08-20T03:12:49;19.00;99.90
23471;DHT22;11908;50.806;4.424;2023-08-20T03:15:15;19.00;99.90
23471;DHT22;11908;50.806;4.424;2023-08-20T03:17:41;18.90;99.90
23471;DHT22;11908;50.806;4.424;2023-08-20T03:20:07;18.90;99.90
23471;DHT22;11908;50.806;4.424;2023-08-20T03:22:33;18.80;99.90
23471;DHT22;11908;50.806;4.424;2023-08-20T03:24:58;18.80;99.90
23471;DHT22;11908;50.806;4.424;2023-08-20T03:27:24;18.70;99.90
23471;DHT22;11908;50.806;4.424;2023-08-20T03:29:51;18.70;99.90
23471;DHT22;11908;50.806;4.424;2023-08-20T03:32:18;18.70;99.90
23471;DHT22;11908;50.806;4.424;2023-08-20T03:34:43;18.60;99.90
23471;DHT22;11908;50.806;4.424;2023-08-20T03:37:09;18.70;99.90
23471;DHT22;11908;50.806;4.424;2023-08-20T03:39:35;18.70;99.90
23471;DHT22;11908;50.806;4.424;2023-08-20T03:42:00;18.70;99.90
23471;DHT22;11908;50.806;4.424;2023-08-20T03:44:26;18.60;99.90
23471;DHT22;11908;50.806;4.424;2023-08-20T03:46:52;18.60;99.90
23471;DHT22;11908;50.806;4.424;2023-08-20T03:49:18;18.50;99.90
23471;DHT22;11908;50.806;4.424;2023-08-20T03:51:43;18.50;99.90
23471;DHT22;11908;50.806;4.424;2023-08-20T03:54:09;18.50;99.90
23471;DHT22;11908;50.806;4.424;2023-08-20T03:56:35;18.50;99.90
23471;DHT22;11908;50.806;4.424;2023-08-20T03:59:01;18.50;99.90
23471;DHT22;11908;50.806;4.424;2023-08-20T04:01:27;18.40;99.90
23471;DHT22;11908;50.806;4.424;2023-08-20T04:03:52;18.40;99.90
23471;DHT22;11908;50.806;4.424;2023-08-20T04:06:18;18.40;99.90
23471;DHT22;11908;50.806;4.424;2023-08-20T04:08:44;18.30;99.90
23471;DHT22;11908;50.806;4.424;2023-08-20T04:11:09;18.20;99.90
23471;DHT22;11908;50.806;4.424;2023-08-20T04:13:35;18.20;99.90
23471;DHT22;11908;50.806;4.424;2023-08-20T04:16:01;18.20;99.90
23471;DHT22;11908;50.806;4.424;2023-08-20T04:18:26;18.20;99.90
23471;DHT22;11908;50.806;4.424;2023-08-20T04:20:52;18.10;99.90
23471;DHT22;11908;50.806;4.424;2023-08-20T04:23:19;18.10;99.90
23471;DHT22;11908;50.806;4.424;2023-08-20T04:25:45;18.10;99.90
23471;DHT22;11908;50.806;4.424;2023-08-20T04:28:12;18.10;99.90
23471;DHT22;11908;50.806;4.424;2023-08-20T04:30:38;18.10;99.90
23471;DHT22;11908;50.806;4.424;2023-08-20T04:33:04;18.10;99.90
23471;DHT22;11908;50.806;4.424;2023-08-20T04:35:29;18.00;99.90
23471;DHT22;11908;50.806;4.424;2023-08-20T04:37:55;18.10;99.90
23471;DHT22;11908;50.806;4.424;2023-08-20T04:40:21;18.10;99.90
23471;DHT22;11908;50.806;4.424;2023-08-20T04:42:46;18.20;99.90
23471;DHT22;11908;50.806;4.424;2023-08-20T04:45:12;18.20;99.90
23471;DHT22;11908;50.806;4.424;2023-08-20T04:47:38;18.30;99.90
23471;DHT22;11908;50.806;4.424;2023-08-20T04:50:04;18.30;99.90
23471;DHT22;11908;50.806;4.424;2023-08-20T04:52:33;18.20;99.90
23471;DHT22;11908;50.806;4.424;2023-08-20T04:55:00;18.10;99.90
23471;DHT22;11908;50.806;4.424;2023-08-20T04:57:25;18.20;99.90
23471;DHT22;11908;50.806;4.424;2023-08-20T04:59:52;18.40;99.90
23471;DHT22;11908;50.806;4.424;2023-08-20T05:02:18;18.60;99.90
23471;DHT22;11908;50.806;4.424;2023-08-20T05:04:44;18.70;99.90
23471;DHT22;11908;50.806;4.424;2023-08-20T05:07:09;18.80;99.90
23471;DHT22;11908;50.806;4.424;2023-08-20T05:09:35;18.90;99.90
23471;DHT22;11908;50.806;4.424;2023-08-20T05:12:01;19.00;99.90
23471;DHT22;11908;50.806;4.424;2023-08-20T05:14:28;19.10;99.90
23471;DHT22;11908;50.806;4.424;2023-08-20T05:16:53;19.40;99.90
23471;DHT22;11908;50.806;4.424;2023-08-20T05:19:19;19.60;99.90
23471;DHT22;11908;50.806;4.424;2023-08-20T05:21:45;19.80;99.90
23471;DHT22;11908;50.806;4.424;2023-08-20T05:24:10;20.10;99.90
23471;DHT22;11908;50.806;4.424;2023-08-20T05:26:36;20.80;99.90
23471;DHT22;11908;50.806;4.424;2023-08-20T05:29:02;21.60;99.90
23471;DHT22;11908;50.806;4.424;2023-08-20T05:31:27;22.30;99.90
23471;DHT22;11908;50.806;4.424;2023-08-20T05:33:53;22.80;99.90
23471;DHT22;11908;50.806;4.424;2023-08-20T05:36:19;22.90;99.90
23471;DHT22;11908;50.806;4.424;2023-08-20T05:38:45;23.00;99.90
23471;DHT22;11908;50.806;4.424;2023-08-20T05:41:10;23.30;99.90
23471;DHT22;11908;50.806;4.424;2023-08-20T05:43:36;23.90;99.90
23471;DHT22;11908;50.806;4.424;2023-08-20T05:46:02;24.70;99.90
23471;DHT22;11908;50.806;4.424;2023-08-20T05:48:28;25.40;99.90
23471;DHT22;11908;50.806;4.424;2023-08-20T05:50:54;26.10;99.90
23471;DHT22;11908;50.806;4.424;2023-08-20T05:53:21;26.90;99.90
23471;DHT22;11908;50.806;4.424;2023-08-20T05:55:47;27.50;99.90
23471;DHT22;11908;50.806;4.424;2023-08-20T05:58:13;27.60;99.90
23471;DHT22;11908;50.806;4.424;2023-08-20T06:00:38;27.40;99.90
23471;DHT22;11908;50.806;4.424;2023-08-20T06:03:04;26.90;99.90
23471;DHT22;11908;50.806;4.424;2023-08-20T06:05:30;26.10;99.90
23471;DHT22;11908;50.806;4.424;2023-08-20T06:07:56;25.60;99.90
23471;DHT22;11908;50.806;4.424;2023-08-20T06:10:21;25.10;99.90
23471;DHT22;11908;50.806;4.424;2023-08-20T06:12:47;24.70;99.90
23471;DHT22;11908;50.806;4.424;2023-08-20T06:15:14;24.30;99.90
23471;DHT22;11908;50.806;4.424;2023-08-20T06:17:39;24.30;99.90
23471;DHT22;11908;50.806;4.424;2023-08-20T06:20:05;24.30;99.90
23471;DHT22;11908;50.806;4.424;2023-08-20T06:22:33;24.10;99.90
23471;DHT22;11908;50.806;4.424;2023-08-20T06:24:59;24.00;99.90
23471;DHT22;11908;50.806;4.424;2023-08-20T06:27:25;23.90;99.90
23471;DHT22;11908;50.806;4.424;2023-08-20T06:29:50;23.80;99.90
23471;DHT22;11908;50.806;4.424;2023-08-20T06:32:16;23.70;99.90
23471;DHT22;11908;50.806;4.424;2023-08-20T06:34:42;23.70;99.90
23471;DHT22;11908;50.806;4.424;2023-08-20T06:37:07;23.70;99.90
23471;DHT22;11908;50.806;4.424;2023-08-20T06:39:34;23.60;99.90
23471;DHT22;11908;50.806;4.424;2023-08-20T06:41:59;23.60;99.90
23471;DHT22;11908;50.806;4.424;2023-08-20T06:44:25;23.50;99.90
23471;DHT22;11908;50.806;4.424;2023-08-20T06:46:51;23.60;99.90
23471;DHT22;11908;50.806;4.424;2023-08-20T06:49:17;23.60;99.90
23471;DHT22;11908;50.806;4.424;2023-08-20T06:51:43;23.50;99.90
23471;DHT22;11908;50.806;4.424;2023-08-20T06:54:08;23.60;99.90
23471;DHT22;11908;50.806;4.424;2023-08-20T06:56:35;23.70;99.90
23471;DHT22;11908;50.806;4.424;2023-08-20T06:59:01;23.80;99.90
23471;DHT22;11908;50.806;4.424;2023-08-20T07:01:28;23.70;99.90
23471;DHT22;11908;50.806;4.424;2023-08-20T07:03:54;23.40;99.90
23471;DHT22;11908;50.806;4.424;2023-08-20T07:06:20;23.30;99.90
23471;DHT22;11908;50.806;4.424;2023-08-20T07:08:46;23.30;99.90
23471;DHT22;11908;50.806;4.424;2023-08-20T07:11:11;23.30;99.90
23471;DHT22;11908;50.806;4.424;2023-08-20T07:13:37;23.40;99.90
23471;DHT22;11908;50.806;4.424;2023-08-20T07:16:03;23.40;99.90
23471;DHT22;11908;50.806;4.424;2023-08-20T07:18:29;23.60;99.90
23471;DHT22;11908;50.806;4.424;2023-08-20T07:20:55;23.60;99.90
23471;DHT22;11908;50.806;4.424;2023-08-20T07:23:21;23.60;99.90
23471;DHT22;11908;50.806;4.424;2023-08-20T07:25:47;23.50;99.90
23471;DHT22;11908;50.806;4.424;2023-08-20T07:28:14;23.90;99.90
23471;DHT22;11908;50.806;4.424;2023-08-20T07:30:40;24.40;99.90
23471;DHT22;11908;50.806;4.424;2023-08-20T07:33:06;25.30;99.90
23471;DHT22;11908;50.806;4.424;2023-08-20T07:35:33;26.20;99.90
23471;DHT22;11908;50.806;4.424;2023-08-20T07:37:59;27.30;99.90
23471;DHT22;11908;50.806;4.424;2023-08-20T07:40:24;28.40;99.90
23471;DHT22;11908;50.806;4.424;2023-08-20T07:42:51;29.80;99.90
23471;DHT22;11908;50.806;4.424;2023-08-20T07:45:16;30.20;99.90
23471;DHT22;11908;50.806;4.424;2023-08-20T07:47:42;31.30;99.90
23471;DHT22;11908;50.806;4.424;2023-08-20T07:50:08;32.50;99.90
23471;DHT22;11908;50.806;4.424;2023-08-20T07:52:34;33.50;99.60
23471;DHT22;11908;50.806;4.424;2023-08-20T07:55:00;34.20;93.50
23471;DHT22;11908;50.806;4.424;2023-08-20T07:57:25;34.80;92.50
23471;DHT22;11908;50.806;4.424;2023-08-20T07:59:51;35.30;90.90
23471;DHT22;11908;50.806;4.424;2023-08-20T08:02:17;34.40;90.50
23471;DHT22;11908;50.806;4.424;2023-08-20T08:04:43;34.50;90.10
23471;DHT22;11908;50.806;4.424;2023-08-20T08:07:10;34.10;88.10
23471;DHT22;11908;50.806;4.424;2023-08-20T08:09:37;35.30;86.20
23471;DHT22;11908;50.806;4.424;2023-08-20T08:12:03;34.70;83.40
23471;DHT22;11908;50.806;4.424;2023-08-20T08:14:29;35.30;83.90
23471;DHT22;11908;50.806;4.424;2023-08-20T08:16:55;36.20;83.20
23471;DHT22;11908;50.806;4.424;2023-08-20T08:19:21;36.70;78.40
23471;DHT22;11908;50.806;4.424;2023-08-20T08:21:47;37.20;77.70
23471;DHT22;11908;50.806;4.424;2023-08-20T08:24:14;37.00;74.20
23471;DHT22;11908;50.806;4.424;2023-08-20T08:26:40;37.60;73.60
23471;DHT22;11908;50.806;4.424;2023-08-20T08:29:07;37.00;71.40
23471;DHT22;11908;50.806;4.424;2023-08-20T08:31:33;37.50;73.30
23471;DHT22;11908;50.806;4.424;2023-08-20T08:33:59;38.20;71.70
23471;DHT22;11908;50.806;4.424;2023-08-20T08:36:24;38.30;72.40
23471;DHT22;11908;50.806;4.424;2023-08-20T08:38:51;38.40;69.50
23471;DHT22;11908;50.806;4.424;2023-08-20T08:41:17;38.80;70.20
23471;DHT22;11908;50.806;4.424;2023-08-20T08:43:46;39.00;69.40
23471;DHT22;11908;50.806;4.424;2023-08-20T08:46:13;38.80;67.10
23471;DHT22;11908;50.806;4.424;2023-08-20T08:48:41;38.10;68.40
23471;DHT22;11908;50.806;4.424;2023-08-20T08:51:07;37.80;70.90
23471;DHT22;11908;50.806;4.424;2023-08-20T08:53:33;37.80;69.40
23471;DHT22;11908;50.806;4.424;2023-08-20T08:56:00;37.90;70.10
23471;DHT22;11908;50.806;4.424;2023-08-20T08:58:26;38.50;69.70
23471;DHT22;11908;50.806;4.424;2023-08-20T09:00:52;37.90;67.50
23471;DHT22;11908;50.806;4.424;2023-08-20T09:03:18;37.70;70.80
23471;DHT22;11908;50.806;4.424;2023-08-20T09:05:54;38.10;68.80
23471;DHT22;11908;50.806;4.424;2023-08-20T09:08:26;39.00;68.50
23471;DHT22;11908;50.806;4.424;2023-08-20T09:10:54;39.30;66.90
23471;DHT22;11908;50.806;4.424;2023-08-20T09:13:24;39.40;66.60
23471;DHT22;11908;50.806;4.424;2023-08-20T09:15:53;40.10;63.90
23471;DHT22;11908;50.806;4.424;2023-08-20T09:18:20;39.90;63.50
23471;DHT22;11908;50.806;4.424;2023-08-20T09:20:48;39.60;61.80
23471;DHT22;11908;50.806;4.424;2023-08-20T09:23:17;39.90;62.50
23471;DHT22;11908;50.806;4.424;2023-08-20T09:25:43;39.60;62.70
23471;DHT22;11908;50.806;4.424;2023-08-20T09:28:09;39.30;64.40
23471;DHT22;11908;50.806;4.424;2023-08-20T09:30:35;40.00;63.20
23471;DHT22;11908;50.806;4.424;2023-08-20T09:33:11;39.70;62.60
23471;DHT22;11908;50.806;4.424;2023-08-20T09:35:37;39.50;64.40
23471;DHT22;11908;50.806;4.424;2023-08-20T09:38:06;39.80;62.50
23471;DHT22;11908;50.806;4.424;2023-08-20T09:40:31;39.50;63.70
23471;DHT22;11908;50.806;4.424;2023-08-20T09:42:57;38.30;64.10
23471;DHT22;11908;50.806;4.424;2023-08-20T09:45:28;38.70;63.90
23471;DHT22;11908;50.806;4.424;2023-08-20T09:47:55;38.90;65.10
23471;DHT22;11908;50.806;4.424;2023-08-20T09:50:22;38.70;64.60
23471;DHT22;11908;50.806;4.424;2023-08-20T09:52:55;38.80;64.00
23471;DHT22;11908;50.806;4.424;2023-08-20T09:55:22;39.20;64.90
23471;DHT22;11908;50.806;4.424;2023-08-20T09:57:54;39.40;64.70
23471;DHT22;11908;50.806;4.424;2023-08-20T10:00:20;38.90;64.60
23471;DHT22;11908;50.806;4.424;2023-08-20T10:02:46;39.60;65.20
23471;DHT22;11908;50.806;4.424;2023-08-20T10:05:13;39.70;62.70
23471;DHT22;11908;50.806;4.424;2023-08-20T10:07:42;39.90;62.70
23471;DHT22;11908;50.806;4.424;2023-08-20T10:10:09;40.10;63.90
23471;DHT22;11908;50.806;4.424;2023-08-20T10:12:37;40.20;64.90
23471;DHT22;11908;50.806;4.424;2023-08-20T10:15:11;40.20;64.10
23471;DHT22;11908;50.806;4.424;2023-08-20T10:17:38;40.40;63.40
23471;DHT22;11908;50.806;4.424;2023-08-20T10:20:04;40.40;62.40
23471;DHT22;11908;50.806;4.424;2023-08-20T10:22:40;40.40;63.30
23471;DHT22;11908;50.806;4.424;2023-08-20T10:25:09;40.30;61.00
23471;DHT22;11908;50.806;4.424;2023-08-20T10:27:37;39.90;61.50
23471;DHT22;11908;50.806;4.424;2023-08-20T10:32:50;39.10;64.30
23471;DHT22;11908;50.806;4.424;2023-08-20T10:35:26;38.10;66.80
23471;DHT22;11908;50.806;4.424;2023-08-20T10:38:12;38.50;65.50
23471;DHT22;11908;50.806;4.424;2023-08-20T10:43:38;38.60;63.60
23471;DHT22;11908;50.806;4.424;2023-08-20T10:46:17;38.40;64.20
23471;DHT22;11908;50.806;4.424;2023-08-20T10:48:51;38.50;64.60
23471;DHT22;11908;50.806;4.424;2023-08-20T10:51:37;38.50;65.10
23471;DHT22;11908;50.806;4.424;2023-08-20T10:54:07;38.70;65.00
23471;DHT22;11908;50.806;4.424;2023-08-20T10:56:48;38.60;67.00
23471;DHT22;11908;50.806;4.424;2023-08-20T10:59:22;38.00;70.00
23471;DHT22;11908;50.806;4.424;2023-08-20T11:01:55;37.90;69.30
23471;DHT22;11908;50.806;4.424;2023-08-20T11:04:23;37.50;69.40
23471;DHT22;11908;50.806;4.424;2023-08-20T11:06:56;38.40;69.20
23471;DHT22;11908;50.806;4.424;2023-08-20T11:09:23;37.80;70.10
23471;DHT22;11908;50.806;4.424;2023-08-20T11:11:50;37.90;68.80
23471;DHT22;11908;50.806;4.424;2023-08-20T11:14:18;37.90;68.80
23471;DHT22;11908;50.806;4.424;2023-08-20T11:16:45;37.40;66.20
23471;DHT22;11908;50.806;4.424;2023-08-20T11:19:12;37.20;67.20
23471;DHT22;11908;50.806;4.424;2023-08-20T11:21:39;37.60;69.60
23471;DHT22;11908;50.806;4.424;2023-08-20T11:24:06;36.20;69.00
23471;DHT22;11908;50.806;4.424;2023-08-20T11:26:32;35.60;74.60
23471;DHT22;11908;50.806;4.424;2023-08-20T11:29:00;35.50;75.40
23471;DHT22;11908;50.806;4.424;2023-08-20T11:31:25;35.50;75.10
23471;DHT22;11908;50.806;4.424;2023-08-20T11:33:51;35.90;71.40
23471;DHT22;11908;50.806;4.424;2023-08-20T11:36:17;35.90;70.80
23471;DHT22;11908;50.806;4.424;2023-08-20T11:38:52;36.70;70.60
23471;DHT22;11908;50.806;4.424;2023-08-20T11:41:22;36.60;68.90
23471;DHT22;11908;50.806;4.424;2023-08-20T11:43:48;36.10;72.90
23471;DHT22;11908;50.806;4.424;2023-08-20T11:46:19;36.30;71.10
23471;DHT22;11908;50.806;4.424;2023-08-20T11:49:07;36.00;71.70
23471;DHT22;11908;50.806;4.424;2023-08-20T11:51:42;35.60;74.50
23471;DHT22;11908;50.806;4.424;2023-08-20T11:54:16;35.20;76.90
23471;DHT22;11908;50.806;4.424;2023-08-20T11:56:45;33.70;77.90
23471;DHT22;11908;50.806;4.424;2023-08-20T11:59:12;33.50;79.20
23471;DHT22;11908;50.806;4.424;2023-08-20T12:01:38;33.80;78.60
23471;DHT22;11908;50.806;4.424;2023-08-20T12:04:05;34.20;77.80
23471;DHT22;11908;50.806;4.424;2023-08-20T12:06:31;34.90;74.90
23471;DHT22;11908;50.806;4.424;2023-08-20T12:08:57;35.20;76.30
23471;DHT22;11908;50.806;4.424;2023-08-20T12:11:27;35.70;73.70
23471;DHT22;11908;50.806;4.424;2023-08-20T12:13:54;35.10;74.20
23471;DHT22;11908;50.806;4.424;2023-08-20T12:16:22;35.30;76.10
23471;DHT22;11908;50.806;4.424;2023-08-20T12:18:48;35.00;75.20
23471;DHT22;11908;50.806;4.424;2023-08-20T12:21:13;35.30;74.20
23471;DHT22;11908;50.806;4.424;2023-08-20T12:23:39;35.00;74.30
23471;DHT22;11908;50.806;4.424;2023-08-20T12:26:05;34.30;75.50
23471;DHT22;11908;50.806;4.424;2023-08-20T12:28:31;34.30;76.90
23471;DHT22;11908;50.806;4.424;2023-08-20T12:30:57;34.70;77.10
23471;DHT22;11908;50.806;4.424;2023-08-20T12:33:22;35.10;76.90
23471;DHT22;11908;50.806;4.424;2023-08-20T12:35:49;35.40;76.50
23471;DHT22;11908;50.806;4.424;2023-08-20T12:38:15;34.90;77.30
23471;DHT22;11908;50.806;4.424;2023-08-20T12:40:41;34.90;79.20
23471;DHT22;11908;50.806;4.424;2023-08-20T12:43:07;34.60;79.30
23471;DHT22;11908;50.806;4.424;2023-08-20T12:45:32;34.60;79.20
23471;DHT22;11908;50.806;4.424;2023-08-20T12:47:58;33.60;78.80
23471;DHT22;11908;50.806;4.424;2023-08-20T12:50:23;33.90;80.10
23471;DHT22;11908;50.806;4.424;2023-08-20T12:52:51;33.50;80.90
23471;DHT22;11908;50.806;4.424;2023-08-20T12:55:17;33.20;84.40
23471;DHT22;11908;50.806;4.424;2023-08-20T12:57:56;33.00;89.40
23471;DHT22;11908;50.806;4.424;2023-08-20T13:00:23;33.70;86.10
23471;DHT22;11908;50.806;4.424;2023-08-20T13:02:51;33.90;87.90
23471;DHT22;11908;50.806;4.424;2023-08-20T13:05:17;33.90;81.80
23471;DHT22;11908;50.806;4.424;2023-08-20T13:07:43;33.80;82.70
23471;DHT22;11908;50.806;4.424;2023-08-20T13:10:09;33.10;84.10
23471;DHT22;11908;50.806;4.424;2023-08-20T13:12:35;33.40;85.70
23471;DHT22;11908;50.806;4.424;2023-08-20T13:15:02;33.40;83.50
23471;DHT22;11908;50.806;4.424;2023-08-20T13:17:29;32.90;86.20
23471;DHT22;11908;50.806;4.424;2023-08-20T13:19:55;33.00;86.50
23471;DHT22;11908;50.806;4.424;2023-08-20T13:22:21;32.70;86.90
23471;DHT22;11908;50.806;4.424;2023-08-20T13:24:47;32.40;89.50
23471;DHT22;11908;50.806;4.424;2023-08-20T13:27:13;32.50;90.20
23471;DHT22;11908;50.806;4.424;2023-08-20T13:29:40;32.50;91.10
23471;DHT22;11908;50.806;4.424;2023-08-20T13:32:06;32.50;88.30
23471;DHT22;11908;50.806;4.424;2023-08-20T13:34:32;32.40;92.20
23471;DHT22;11908;50.806;4.424;2023-08-20T13:36:57;32.30;92.60
23471;DHT22;11908;50.806;4.424;2023-08-20T13:39:24;32.20;90.60
23471;DHT22;11908;50.806;4.424;2023-08-20T13:41:50;31.90;92.30
23471;DHT22;11908;50.806;4.424;2023-08-20T13:44:16;32.00;93.40
23471;DHT22;11908;50.806;4.424;2023-08-20T13:46:41;31.70;93.20
23471;DHT22;11908;50.806;4.424;2023-08-20T13:49:07;31.90;92.50
23471;DHT22;11908;50.806;4.424;2023-08-20T13:51:33;32.10;92.60
23471;DHT22;11908;50.806;4.424;2023-08-20T13:53:58;32.30;92.10
23471;DHT22;11908;50.806;4.424;2023-08-20T13:56:24;32.50;90.10
23471;DHT22;11908;50.806;4.424;2023-08-20T13:58:51;32.10;91.70
23471;DHT22;11908;50.806;4.424;2023-08-20T14:01:17;32.10;91.30
23471;DHT22;11908;50.806;4.424;2023-08-20T14:03:43;32.40;89.20
23471;DHT22;11908;50.806;4.424;2023-08-20T14:06:09;32.10;90.50
23471;DHT22;11908;50.806;4.424;2023-08-20T14:08:34;32.00;91.50
23471;DHT22;11908;50.806;4.424;2023-08-20T14:11:00;31.80;91.80
23471;DHT22;11908;50.806;4.424;2023-08-20T14:13:26;31.90;91.60
23471;DHT22;11908;50.806;4.424;2023-08-20T14:15:51;31.80;92.30
23471;DHT22;11908;50.806;4.424;2023-08-20T14:18:17;31.70;93.00
23471;DHT22;11908;50.806;4.424;2023-08-20T14:20:43;31.50;94.10
23471;DHT22;11908;50.806;4.424;2023-08-20T14:23:09;31.40;93.50
23471;DHT22;11908;50.806;4.424;2023-08-20T14:25:34;31.40;93.10
23471;DHT22;11908;50.806;4.424;2023-08-20T14:28:00;31.50;93.60
23471;DHT22;11908;50.806;4.424;2023-08-20T14:30:26;31.70;92.70
23471;DHT22;11908;50.806;4.424;2023-08-20T14:32:52;31.60;92.70
23471;DHT22;11908;50.806;4.424;2023-08-20T14:35:18;31.80;94.80
23471;DHT22;11908;50.806;4.424;2023-08-20T14:37:45;31.30;93.30
23471;DHT22;11908;50.806;4.424;2023-08-20T14:40:11;31.30;93.00
23471;DHT22;11908;50.806;4.424;2023-08-20T14:42:37;31.30;93.10
23471;DHT22;11908;50.806;4.424;2023-08-20T14:45:03;31.10;94.80
23471;DHT22;11908;50.806;4.424;2023-08-20T14:47:30;31.20;93.70
23471;DHT22;11908;50.806;4.424;2023-08-20T14:49:55;31.50;93.50
23471;DHT22;11908;50.806;4.424;2023-08-20T14:52:21;31.40;93.10
23471;DHT22;11908;50.806;4.424;2023-08-20T14:54:47;31.50;93.70
23471;DHT22;11908;50.806;4.424;2023-08-20T14:57:12;31.70;94.90
23471;DHT22;11908;50.806;4.424;2023-08-20T14:59:38;31.40;92.90
23471;DHT22;11908;50.806;4.424;2023-08-20T15:02:04;31.20;92.90
23471;DHT22;11908;50.806;4.424;2023-08-20T15:04:30;31.00;93.90
23471;DHT22;11908;50.806;4.424;2023-08-20T15:06:55;31.30;94.20
23471;DHT22;11908;50.806;4.424;2023-08-20T15:09:21;31.30;94.50
23471;DHT22;11908;50.806;4.424;2023-08-20T15:11:47;31.50;93.80
23471;DHT22;11908;50.806;4.424;2023-08-20T15:14:12;31.00;93.70
23471;DHT22;11908;50.806;4.424;2023-08-20T15:16:38;30.70;94.40
23471;DHT22;11908;50.806;4.424;2023-08-20T15:19:03;30.60;95.30
23471;DHT22;11908;50.806;4.424;2023-08-20T15:21:29;30.20;95.00
23471;DHT22;11908;50.806;4.424;2023-08-20T15:23:55;30.00;96.20
23471;DHT22;11908;50.806;4.424;2023-08-20T15:26:20;30.00;96.60
23471;DHT22;11908;50.806;4.424;2023-08-20T15:28:46;29.90;96.30
23471;DHT22;11908;50.806;4.424;2023-08-20T15:31:12;29.80;97.10
23471;DHT22;11908;50.806;4.424;2023-08-20T15:33:37;29.70;96.50
23471;DHT22;11908;50.806;4.424;2023-08-20T15:36:03;29.70;96.30
23471;DHT22;11908;50.806;4.424;2023-08-20T15:38:29;29.70;95.70
23471;DHT22;11908;50.806;4.424;2023-08-20T15:40:55;29.70;95.70
23471;DHT22;11908;50.806;4.424;2023-08-20T15:43:20;29.80;96.30